createdAt,value
2022-07-26T00:00:13.013Z,20.80
2022-07-26T00:02:47.917Z,20.80
2022-07-26T00:05:16.485Z,20.70
2022-07-26T00:07:43.692Z,20.70
2022-07-26T00:10:10.735Z,20.70
2022-07-26T00:12:37.652Z,20.70
2022-07-26T00:15:06.955Z,20.70
2022-07-26T00:17:33.742Z,20.60
2022-07-26T00:20:00.677Z,20.60
2022-07-26T00:22:36.498Z,20.50
2022-07-26T00:25:08.030Z,20.50
2022-07-26T00:27:38.745Z,20.40
2022-07-26T00:30:07.968Z,20.30
2022-07-26T00:32:34.724Z,20.00
2022-07-26T00:35:01.513Z,19.80
2022-07-26T00:37:29.404Z,19.60
2022-07-26T00:39:56.520Z,19.40
2022-07-26T00:42:23.358Z,19.20
2022-07-26T00:44:50.224Z,19.00
2022-07-26T00:47:17.355Z,18.80
2022-07-26T00:49:44.933Z,18.70
2022-07-26T00:52:12.589Z,18.60
2022-07-26T00:54:43.706Z,18.50
2022-07-26T00:57:10.490Z,18.40
2022-07-26T00:59:37.706Z,18.30
2022-07-26T01:02:06.456Z,18.20
2022-07-26T01:04:33.454Z,18.20
2022-07-26T01:07:01.183Z,18.10
2022-07-26T01:09:28.298Z,18.10
2022-07-26T01:11:54.996Z,18.00
2022-07-26T01:14:24.263Z,18.10
2022-07-26T01:16:51.463Z,18.00
2022-07-26T01:19:19.088Z,18.00
2022-07-26T01:21:46.214Z,18.00
2022-07-26T01:24:12.992Z,18.00
2022-07-26T01:26:39.730Z,17.90
2022-07-26T01:29:06.688Z,18.00
2022-07-26T01:31:33.757Z,17.90
2022-07-26T01:34:00.716Z,17.90
2022-07-26T01:36:27.490Z,17.90
2022-07-26T01:38:54.269Z,17.90
2022-07-26T01:41:31.628Z,17.90
2022-07-26T01:44:05.063Z,17.90
2022-07-26T01:46:32.049Z,17.90
2022-07-26T01:48:58.847Z,17.90
2022-07-26T01:51:25.656Z,17.90
2022-07-26T01:53:52.304Z,17.90
2022-07-26T01:56:19.021Z,17.90
2022-07-26T01:58:45.680Z,17.90
2022-07-26T02:01:12.634Z,17.90
2022-07-26T02:03:39.418Z,17.90
2022-07-26T02:06:06.186Z,17.80
2022-07-26T02:08:33.786Z,17.80
2022-07-26T02:11:00.545Z,17.80
2022-07-26T02:13:42.352Z,17.80
2022-07-26T02:16:11.909Z,17.70
2022-07-26T02:18:40.364Z,17.70
2022-07-26T02:21:07.943Z,17.60
2022-07-26T02:23:35.747Z,17.60
2022-07-26T02:26:08.079Z,17.60
2022-07-26T02:28:34.773Z,17.50
2022-07-26T02:31:01.469Z,17.50
2022-07-26T02:33:28.294Z,17.40
2022-07-26T02:35:54.913Z,17.40
2022-07-26T02:38:21.603Z,17.40
2022-07-26T02:40:50.452Z,17.30
2022-07-26T02:43:17.400Z,17.30
2022-07-26T02:45:44.114Z,17.30
2022-07-26T02:48:27.809Z,17.20
2022-07-26T02:50:54.925Z,17.20
2022-07-26T02:53:21.546Z,17.20
2022-07-26T02:55:48.208Z,17.20
2022-07-26T02:58:14.974Z,17.20
2022-07-26T03:00:41.706Z,17.20
2022-07-26T03:03:08.610Z,17.20
2022-07-26T03:05:35.455Z,17.20
2022-07-26T03:08:02.096Z,17.20
2022-07-26T03:10:28.949Z,17.20
2022-07-26T03:12:56.964Z,17.20
2022-07-26T03:15:23.814Z,17.20
2022-07-26T03:17:50.626Z,17.30
2022-07-26T03:20:17.647Z,17.30
2022-07-26T03:22:44.394Z,17.30
2022-07-26T03:25:11.058Z,17.30
2022-07-26T03:27:37.869Z,17.30
2022-07-26T03:30:05.972Z,17.30
2022-07-26T03:32:33.051Z,17.30
2022-07-26T03:34:59.734Z,17.30
2022-07-26T03:37:26.456Z,17.30
2022-07-26T03:40:13.329Z,17.30
2022-07-26T03:42:40.058Z,17.30
2022-07-26T03:45:07.096Z,17.30
2022-07-26T03:47:33.859Z,17.30
2022-07-26T03:50:00.537Z,17.30
2022-07-26T03:52:27.401Z,17.30
2022-07-26T03:54:54.247Z,17.30
2022-07-26T03:57:21.070Z,17.40
2022-07-26T03:59:47.818Z,17.30
2022-07-26T04:02:14.731Z,17.20
2022-07-26T04:04:41.578Z,17.30
2022-07-26T04:07:09.400Z,17.20
2022-07-26T04:09:36.157Z,17.20
2022-07-26T04:12:02.825Z,17.10
2022-07-26T04:14:29.489Z,17.10
2022-07-26T04:16:56.222Z,17.10
2022-07-26T04:19:22.987Z,17.10
2022-07-26T04:21:49.731Z,17.00
2022-07-26T04:24:16.454Z,17.00
2022-07-26T04:26:43.166Z,17.00
2022-07-26T04:29:11.617Z,17.00
2022-07-26T04:31:38.725Z,17.00
2022-07-26T04:34:05.815Z,17.00
2022-07-26T04:36:32.922Z,17.00
2022-07-26T04:38:59.728Z,17.00
2022-07-26T04:41:26.384Z,17.00
2022-07-26T04:43:53.174Z,17.00
2022-07-26T04:46:19.909Z,17.00
2022-07-26T04:48:46.676Z,17.00
2022-07-26T04:51:13.551Z,17.00
2022-07-26T04:53:40.279Z,16.90
2022-07-26T04:56:07.338Z,16.90
2022-07-26T04:58:34.062Z,16.90
2022-07-26T05:01:16.259Z,16.80
2022-07-26T05:03:43.076Z,16.80
2022-07-26T05:06:09.762Z,16.80
2022-07-26T05:08:36.486Z,16.80
2022-07-26T05:11:04.077Z,16.90
2022-07-26T05:13:31.149Z,16.90
2022-07-26T05:15:59.538Z,16.90
2022-07-26T05:18:26.619Z,16.90
2022-07-26T05:20:53.591Z,16.90
2022-07-26T05:23:20.550Z,16.90
2022-07-26T05:25:47.811Z,16.90
2022-07-26T05:28:29.732Z,16.90
2022-07-26T05:30:56.600Z,17.00
2022-07-26T05:33:23.409Z,17.00
2022-07-26T05:35:50.098Z,17.00
2022-07-26T05:38:16.919Z,17.10
2022-07-26T05:40:47.283Z,17.10
2022-07-26T05:43:17.356Z,17.10
2022-07-26T05:45:44.210Z,17.20
2022-07-26T05:48:10.966Z,17.20
2022-07-26T05:50:37.737Z,17.20
2022-07-26T05:53:04.471Z,17.30
2022-07-26T05:55:31.225Z,17.40
2022-07-26T05:57:58.067Z,17.40
2022-07-26T06:00:24.727Z,17.50
2022-07-26T06:02:51.658Z,17.50
2022-07-26T06:05:18.549Z,17.60
2022-07-26T06:07:45.284Z,17.60
2022-07-26T06:10:12.188Z,17.70
2022-07-26T06:12:39.168Z,17.80
2022-07-26T06:15:15.870Z,17.80
2022-07-26T06:17:43.339Z,17.90
2022-07-26T06:20:10.795Z,18.00
2022-07-26T06:22:37.553Z,18.00
2022-07-26T06:25:04.348Z,18.00
2022-07-26T06:27:32.850Z,18.10
2022-07-26T06:29:59.586Z,18.10
2022-07-26T06:32:26.331Z,18.20
2022-07-26T06:34:53.059Z,18.20
2022-07-26T06:37:19.870Z,18.20
2022-07-26T06:39:46.568Z,18.20
2022-07-26T06:42:13.246Z,18.20
2022-07-26T06:44:40.055Z,18.20
2022-07-26T06:47:06.746Z,18.20
2022-07-26T06:49:33.972Z,18.10
2022-07-26T06:52:00.807Z,18.10
2022-07-26T06:54:27.637Z,18.00
2022-07-26T06:56:54.409Z,18.00
2022-07-26T06:59:21.250Z,18.10
2022-07-26T07:01:58.273Z,18.10
2022-07-26T07:04:27.377Z,18.10
2022-07-26T07:06:54.311Z,18.10
2022-07-26T07:09:22.045Z,18.10
2022-07-26T07:11:53.709Z,18.10
2022-07-26T07:14:23.076Z,18.10
2022-07-26T07:16:50.169Z,18.10
2022-07-26T07:19:16.971Z,18.10
2022-07-26T07:21:43.667Z,18.10
2022-07-26T07:24:10.716Z,18.10
2022-07-26T07:26:37.841Z,18.00
2022-07-26T07:29:04.698Z,18.10
2022-07-26T07:31:47.985Z,18.00
2022-07-26T07:34:17.982Z,18.00
2022-07-26T07:36:46.622Z,18.00
2022-07-26T07:39:17.332Z,18.00
2022-07-26T07:41:45.634Z,17.90
2022-07-26T07:44:12.551Z,17.90
2022-07-26T07:46:39.470Z,17.80
2022-07-26T07:49:07.242Z,17.80
2022-07-26T07:51:34.415Z,17.70
2022-07-26T07:54:05.957Z,17.70
2022-07-26T07:56:33.565Z,17.60
2022-07-26T07:59:00.561Z,17.60
2022-07-26T08:01:40.238Z,17.60
2022-07-26T08:04:09.451Z,17.70
2022-07-26T08:06:36.933Z,17.70
2022-07-26T08:09:06.572Z,17.80
2022-07-26T08:11:34.265Z,17.90
2022-07-26T08:14:01.921Z,18.00
2022-07-26T08:16:29.069Z,18.10
2022-07-26T08:18:57.869Z,18.20
2022-07-26T08:21:26.440Z,18.20
2022-07-26T08:24:13.755Z,18.30
2022-07-26T08:26:40.642Z,18.30
2022-07-26T08:29:07.508Z,18.30
2022-07-26T08:31:34.364Z,18.20
2022-07-26T08:34:01.142Z,18.20
2022-07-26T08:36:32.277Z,18.20
2022-07-26T08:39:00.856Z,18.20
2022-07-26T08:41:27.895Z,18.30
2022-07-26T08:43:55.515Z,18.30
2022-07-26T08:46:25.881Z,18.30
2022-07-26T08:48:57.580Z,18.30
2022-07-26T08:51:25.918Z,18.30
2022-07-26T08:54:01.913Z,18.30
2022-07-26T08:56:32.356Z,18.30
2022-07-26T08:58:59.193Z,18.30
2022-07-26T09:01:27.045Z,18.40
2022-07-26T09:03:53.845Z,18.40
2022-07-26T09:06:22.818Z,18.50
2022-07-26T09:09:11.445Z,18.60
2022-07-26T09:11:38.447Z,18.70
2022-07-26T09:14:06.603Z,18.80
2022-07-26T09:16:37.566Z,18.90
2022-07-26T09:19:17.852Z,19.00
2022-07-26T09:21:46.396Z,19.10
2022-07-26T09:24:29.011Z,19.20
2022-07-26T09:27:00.353Z,19.30
2022-07-26T09:29:28.549Z,19.30
2022-07-26T09:32:11.084Z,19.40
2022-07-26T09:34:48.037Z,19.30
2022-07-26T09:37:32.175Z,19.40
2022-07-26T09:40:01.944Z,19.40
2022-07-26T09:42:29.934Z,19.40
2022-07-26T09:44:58.319Z,19.50
2022-07-26T09:47:40.761Z,19.50
2022-07-26T09:50:12.585Z,19.50
2022-07-26T09:52:39.754Z,19.60
2022-07-26T09:55:08.272Z,19.70
2022-07-26T09:57:35.407Z,19.80
2022-07-26T10:00:07.752Z,20.00
2022-07-26T10:02:34.901Z,20.20
2022-07-26T10:05:01.790Z,20.40
2022-07-26T10:07:29.036Z,20.60
2022-07-26T10:10:04.468Z,20.70
2022-07-26T10:12:33.080Z,20.90
2022-07-26T10:15:00.155Z,21.00
2022-07-26T10:17:31.611Z,21.20
2022-07-26T10:20:03.892Z,21.30
2022-07-26T10:22:45.449Z,21.30
2022-07-26T10:25:18.326Z,21.30
2022-07-26T10:27:52.273Z,21.30
2022-07-26T10:30:22.621Z,21.30
2022-07-26T10:33:06.191Z,21.40
2022-07-26T10:35:44.945Z,21.50
2022-07-26T10:38:27.053Z,21.60
2022-07-26T10:40:59.746Z,21.70
2022-07-26T10:43:40.675Z,21.90
2022-07-26T10:46:17.893Z,22.00
2022-07-26T10:49:06.281Z,22.10
2022-07-26T10:51:35.812Z,22.20
2022-07-26T10:54:12.161Z,22.30
2022-07-26T10:56:40.221Z,22.40
2022-07-26T10:59:07.267Z,22.60
2022-07-26T11:01:38.094Z,22.80
2022-07-26T11:04:07.268Z,23.00
2022-07-26T11:06:34.179Z,23.10
2022-07-26T11:09:10.483Z,23.20
2022-07-26T11:11:37.231Z,23.20
2022-07-26T11:14:04.866Z,23.30
2022-07-26T11:16:38.031Z,23.50
2022-07-26T11:19:19.771Z,23.60
2022-07-26T11:21:53.357Z,23.60
2022-07-26T11:24:21.939Z,23.50
2022-07-26T11:26:48.793Z,23.40
2022-07-26T11:29:17.385Z,23.30
2022-07-26T11:31:50.400Z,23.40
2022-07-26T11:34:29.033Z,23.70
2022-07-26T11:36:58.247Z,23.90
2022-07-26T11:39:27.970Z,24.00
2022-07-26T11:41:59.728Z,24.10
2022-07-26T11:44:27.380Z,24.10
2022-07-26T11:46:54.683Z,24.10
2022-07-26T11:49:41.439Z,24.20
2022-07-26T11:52:12.049Z,24.20
2022-07-26T11:54:50.351Z,24.20
2022-07-26T11:57:18.422Z,24.10
2022-07-26T11:59:47.378Z,24.10
2022-07-26T12:02:14.971Z,24.20
2022-07-26T12:04:43.476Z,24.20
2022-07-26T12:07:17.167Z,24.20
2022-07-26T12:09:50.722Z,24.30
2022-07-26T12:12:20.682Z,24.20
2022-07-26T12:14:56.636Z,24.20
2022-07-26T12:17:23.725Z,24.20
2022-07-26T12:19:50.583Z,24.10
2022-07-26T12:22:19.982Z,23.90
2022-07-26T12:24:53.075Z,23.70
2022-07-26T12:27:25.550Z,23.50
2022-07-26T12:30:16.546Z,23.40
2022-07-26T12:32:46.047Z,23.50
2022-07-26T12:35:17.836Z,23.70
2022-07-26T12:37:47.789Z,23.80
2022-07-26T12:40:17.617Z,23.90
2022-07-26T12:42:50.470Z,23.90
2022-07-26T12:45:20.293Z,23.90
2022-07-26T12:47:49.826Z,24.00
2022-07-26T12:50:19.295Z,24.20
2022-07-26T12:52:46.942Z,24.50
2022-07-26T12:55:16.515Z,24.80
2022-07-26T12:57:47.193Z,25.10
2022-07-26T13:00:16.551Z,25.30
2022-07-26T13:02:44.178Z,25.50
2022-07-26T13:05:11.836Z,25.50
2022-07-26T13:07:39.249Z,25.30
2022-07-26T13:10:31.736Z,25.10
2022-07-26T13:12:54.819Z,24.80
2022-07-26T13:15:21.701Z,24.60
2022-07-26T13:17:48.515Z,24.40
2022-07-26T13:20:15.812Z,24.20
2022-07-26T13:22:44.116Z,24.10
2022-07-26T13:25:11.026Z,24.00
2022-07-26T13:27:41.413Z,23.90
2022-07-26T13:30:11.946Z,23.90
2022-07-26T13:32:38.725Z,24.10
2022-07-26T13:35:05.856Z,24.30
2022-07-26T13:37:32.524Z,24.50
2022-07-26T13:39:59.281Z,24.50
2022-07-26T13:42:26.002Z,24.60
2022-07-26T13:44:52.730Z,24.80
2022-07-26T13:47:19.486Z,24.80
2022-07-26T13:49:46.316Z,24.80
2022-07-26T13:52:16.542Z,24.70
2022-07-26T13:54:43.723Z,24.60
2022-07-26T13:57:10.482Z,24.50
2022-07-26T13:59:37.194Z,24.30
2022-07-26T14:02:05.047Z,24.20
2022-07-26T14:04:31.931Z,24.10
2022-07-26T14:06:58.983Z,24.00
2022-07-26T14:09:25.892Z,23.80
2022-07-26T14:11:52.874Z,23.80
2022-07-26T14:14:19.624Z,23.70
2022-07-26T14:16:49.292Z,23.70
2022-07-26T14:19:16.616Z,23.60
2022-07-26T14:21:58.716Z,23.60
2022-07-26T14:24:27.863Z,23.60
2022-07-26T14:26:58.855Z,23.80
2022-07-26T14:29:26.127Z,23.90
2022-07-26T14:31:53.187Z,24.10
2022-07-26T14:34:20.004Z,24.30
2022-07-26T14:36:46.791Z,24.50
2022-07-26T14:39:13.636Z,24.80
2022-07-26T14:41:40.509Z,24.90
2022-07-26T14:44:07.580Z,25.00
2022-07-26T14:46:34.696Z,25.20
2022-07-26T14:49:01.498Z,25.30
2022-07-26T14:51:28.579Z,25.50
2022-07-26T14:53:55.448Z,25.50
2022-07-26T14:56:22.297Z,25.60
2022-07-26T14:58:49.146Z,25.60
2022-07-26T15:01:16.532Z,25.60
2022-07-26T15:03:43.599Z,25.70
2022-07-26T15:06:10.330Z,25.70
2022-07-26T15:08:37.078Z,25.60
2022-07-26T15:11:05.444Z,25.50
2022-07-26T15:13:32.273Z,25.40
2022-07-26T15:15:59.285Z,25.30
2022-07-26T15:18:26.283Z,25.10
2022-07-26T15:20:53.559Z,25.00
2022-07-26T15:23:20.473Z,24.90
2022-07-26T15:25:48.570Z,24.80
2022-07-26T15:28:16.230Z,24.70
2022-07-26T15:30:43.397Z,24.70
2022-07-26T15:33:10.653Z,24.80
2022-07-26T15:35:38.860Z,24.90
2022-07-26T15:38:05.701Z,25.00
2022-07-26T15:40:32.676Z,25.00
2022-07-26T15:42:59.531Z,25.00
2022-07-26T15:45:27.901Z,25.00
2022-07-26T15:48:08.345Z,24.90
2022-07-26T15:50:42.377Z,24.80
2022-07-26T15:53:09.262Z,24.80
2022-07-26T15:55:36.118Z,24.90
2022-07-26T15:58:03.158Z,24.90
2022-07-26T16:00:29.911Z,24.90
2022-07-26T16:02:56.672Z,25.00
2022-07-26T16:05:23.526Z,24.90
2022-07-26T16:07:50.369Z,24.90
2022-07-26T16:10:17.275Z,24.80
2022-07-26T16:12:44.030Z,24.80
2022-07-26T16:15:11.811Z,24.70
2022-07-26T16:17:38.977Z,24.60
2022-07-26T16:20:06.534Z,24.50
2022-07-26T16:22:33.251Z,24.50
2022-07-26T16:25:00.168Z,24.40
2022-07-26T16:27:27.031Z,24.30
2022-07-26T16:29:53.821Z,24.30
2022-07-26T16:32:21.566Z,24.20
2022-07-26T16:34:48.890Z,24.10
2022-07-26T16:37:15.745Z,24.00
2022-07-26T16:39:42.676Z,23.90
2022-07-26T16:42:09.687Z,23.80
2022-07-26T16:44:36.568Z,23.80
2022-07-26T16:47:04.444Z,23.80
2022-07-26T16:49:31.406Z,23.70
2022-07-26T16:51:58.726Z,23.70
2022-07-26T16:54:25.959Z,23.70
2022-07-26T16:56:52.907Z,23.70
2022-07-26T16:59:19.656Z,23.60
2022-07-26T17:01:46.576Z,23.50
2022-07-26T17:04:13.431Z,23.40
2022-07-26T17:06:40.270Z,23.30
2022-07-26T17:09:07.196Z,23.20
2022-07-26T17:11:42.024Z,23.20
2022-07-26T17:14:08.781Z,23.00
2022-07-26T17:16:35.880Z,22.90
2022-07-26T17:19:03.297Z,22.80
2022-07-26T17:21:30.115Z,22.60
2022-07-26T17:23:56.932Z,22.50
2022-07-26T17:26:24.287Z,22.40
2022-07-26T17:28:51.230Z,22.20
2022-07-26T17:31:18.081Z,22.00
2022-07-26T17:33:45.023Z,21.90
2022-07-26T17:36:23.419Z,21.80
2022-07-26T17:38:50.672Z,21.70
2022-07-26T17:41:18.530Z,21.70
2022-07-26T17:43:47.714Z,21.60
2022-07-26T17:46:14.963Z,21.60
2022-07-26T17:48:43.954Z,21.50
2022-07-26T17:51:10.867Z,21.50
2022-07-26T17:53:37.650Z,21.60
2022-07-26T17:56:04.754Z,21.60
2022-07-26T17:58:31.533Z,21.50
2022-07-26T18:00:58.484Z,21.50
2022-07-26T18:03:25.291Z,21.60
2022-07-26T18:05:52.268Z,21.60
2022-07-26T18:08:19.151Z,21.50
2022-07-26T18:10:50.693Z,21.50
2022-07-26T18:13:18.020Z,21.50
2022-07-26T18:15:45.554Z,21.40
2022-07-26T18:18:12.294Z,21.40
2022-07-26T18:20:39.348Z,21.40
2022-07-26T18:23:06.287Z,21.40
2022-07-26T18:25:33.160Z,21.30
2022-07-26T18:28:06.377Z,21.30
2022-07-26T18:30:34.077Z,21.30
2022-07-26T18:33:01.335Z,21.20
2022-07-26T18:35:28.486Z,21.20
2022-07-26T18:37:55.405Z,21.20
2022-07-26T18:40:26.410Z,21.20
2022-07-26T18:42:53.309Z,21.10
2022-07-26T18:45:20.211Z,21.10
2022-07-26T18:47:46.971Z,21.10
2022-07-26T18:50:16.912Z,21.10
2022-07-26T18:52:44.680Z,21.10
2022-07-26T18:55:12.931Z,21.00
2022-07-26T18:57:42.444Z,21.00
2022-07-26T19:00:15.058Z,21.00
2022-07-26T19:02:43.070Z,20.90
2022-07-26T19:05:10.514Z,20.90
2022-07-26T19:07:38.194Z,20.80
2022-07-26T19:10:07.135Z,20.80
2022-07-26T19:12:34.098Z,20.70
2022-07-26T19:15:01.308Z,20.60
2022-07-26T19:17:30.356Z,20.50
2022-07-26T19:20:00.071Z,20.50
2022-07-26T19:22:26.875Z,20.40
2022-07-26T19:24:53.684Z,20.40
2022-07-26T19:27:20.625Z,20.30
2022-07-26T19:29:48.579Z,20.20
2022-07-26T19:32:15.434Z,20.20
2022-07-26T19:34:42.384Z,20.10
2022-07-26T19:37:09.282Z,20.00
2022-07-26T19:39:36.259Z,20.00
2022-07-26T19:42:03.283Z,19.90
2022-07-26T19:44:30.134Z,19.80
2022-07-26T19:46:57.946Z,19.80
2022-07-26T19:49:25.323Z,19.70
2022-07-26T19:51:52.125Z,19.60
2022-07-26T19:54:18.851Z,19.60
2022-07-26T19:56:45.546Z,19.60
2022-07-26T19:59:12.859Z,19.60
2022-07-26T20:01:40.480Z,19.60
2022-07-26T20:04:07.434Z,19.50
2022-07-26T20:06:34.279Z,19.50
2022-07-26T20:09:01.197Z,19.50
2022-07-26T20:11:28.224Z,19.40
2022-07-26T20:13:57.693Z,19.40
2022-07-26T20:16:24.485Z,19.40
2022-07-26T20:18:51.219Z,19.40
2022-07-26T20:21:18.176Z,19.30
2022-07-26T20:23:44.997Z,19.30
2022-07-26T20:26:13.243Z,19.30
2022-07-26T20:28:41.167Z,19.20
2022-07-26T20:31:08.172Z,19.20
2022-07-26T20:33:35.017Z,19.10
2022-07-26T20:36:01.819Z,19.00
2022-07-26T20:38:28.524Z,18.90
2022-07-26T20:40:55.354Z,18.90
2022-07-26T20:43:23.446Z,18.80
2022-07-26T20:45:52.398Z,18.70
2022-07-26T20:48:19.280Z,18.70
2022-07-26T20:50:46.199Z,18.70
2022-07-26T20:53:12.962Z,18.70
2022-07-26T20:55:39.709Z,18.60
2022-07-26T20:58:06.454Z,18.60
2022-07-26T21:00:33.548Z,18.60
2022-07-26T21:03:00.442Z,18.60
2022-07-26T21:05:32.166Z,18.60
2022-07-26T21:07:59.986Z,18.60
2022-07-26T21:10:29.085Z,18.60
2022-07-26T21:12:57.437Z,18.70
2022-07-26T21:15:24.291Z,18.70
2022-07-26T21:17:52.389Z,18.70
2022-07-26T21:20:19.519Z,18.70
2022-07-26T21:22:46.354Z,18.80
2022-07-26T21:25:13.258Z,18.80
2022-07-26T21:27:40.278Z,18.90
2022-07-26T21:30:08.158Z,18.90
2022-07-26T21:32:34.998Z,19.00
2022-07-26T21:35:01.915Z,19.00
2022-07-26T21:37:28.711Z,19.00
2022-07-26T21:39:55.433Z,19.00
2022-07-26T21:42:26.910Z,19.00
2022-07-26T21:44:53.693Z,19.00
2022-07-26T21:47:20.465Z,19.00
2022-07-26T21:49:47.184Z,19.00
2022-07-26T21:52:13.863Z,19.00
2022-07-26T21:54:40.530Z,19.00
2022-07-26T21:57:07.479Z,19.00
2022-07-26T21:59:34.362Z,19.00
2022-07-26T22:02:01.182Z,19.00
2022-07-26T22:04:28.036Z,19.00
2022-07-26T22:06:54.835Z,19.00
2022-07-26T22:09:21.602Z,18.90
2022-07-26T22:11:48.380Z,18.90
2022-07-26T22:14:15.156Z,18.90
2022-07-26T22:16:47.433Z,18.90
2022-07-26T22:19:14.770Z,18.90
2022-07-26T22:21:41.465Z,18.80
2022-07-26T22:24:08.272Z,18.80
2022-07-26T22:26:36.081Z,18.80
2022-07-26T22:29:02.896Z,18.70
2022-07-26T22:31:29.794Z,18.70
2022-07-26T22:33:56.552Z,18.70
2022-07-26T22:36:23.197Z,18.60
2022-07-26T22:38:50.016Z,18.70
2022-07-26T22:41:16.923Z,18.60
2022-07-26T22:43:43.781Z,18.60
2022-07-26T22:46:10.579Z,18.50
2022-07-26T22:48:38.968Z,18.50
2022-07-26T22:51:06.727Z,18.40
2022-07-26T22:53:33.480Z,18.30
2022-07-26T22:56:00.247Z,18.30
2022-07-26T22:58:26.944Z,18.20
2022-07-26T23:00:54.164Z,18.10
2022-07-26T23:03:21.786Z,18.00
2022-07-26T23:05:50.374Z,18.00
2022-07-26T23:08:45.084Z,17.90
2022-07-26T23:11:06.571Z,17.80
2022-07-26T23:13:33.812Z,17.70
2022-07-26T23:16:01.637Z,17.60
2022-07-26T23:18:30.356Z,17.50
2022-07-26T23:20:57.176Z,17.40
2022-07-26T23:23:27.785Z,17.40
2022-07-26T23:25:57.302Z,17.30
2022-07-26T23:28:36.172Z,17.20
2022-07-26T23:31:06.408Z,17.20
2022-07-26T23:33:52.775Z,17.20
2022-07-26T23:36:20.174Z,17.10
2022-07-26T23:38:46.900Z,17.10
2022-07-26T23:41:13.574Z,17.00
2022-07-26T23:43:40.253Z,17.00
2022-07-26T23:46:06.955Z,16.90
2022-07-26T23:48:33.628Z,16.90
2022-07-26T23:51:00.377Z,16.90
2022-07-26T23:53:27.330Z,16.80
2022-07-26T23:55:54.402Z,16.80
2022-07-26T23:58:21.389Z,16.70
